createdAt,value
2019-03-25T00:02:27.516Z,5.10
2019-03-25T00:04:53.576Z,5.10
2019-03-25T00:07:19.627Z,5.20
2019-03-25T00:09:45.739Z,5.20
2019-03-25T00:12:11.887Z,5.20
2019-03-25T00:14:37.973Z,5.20
2019-03-25T00:17:04.244Z,5.20
2019-03-25T00:19:30.307Z,5.20
2019-03-25T00:21:56.368Z,5.20
2019-03-25T00:24:22.433Z,5.20
2019-03-25T00:26:48.484Z,5.20
2019-03-25T00:29:14.580Z,5.30
2019-03-25T00:31:40.641Z,5.30
2019-03-25T00:34:06.779Z,5.30
2019-03-25T00:36:32.844Z,5.40
2019-03-25T00:38:58.915Z,5.40
2019-03-25T00:41:24.976Z,5.40
2019-03-25T00:43:51.036Z,5.50
2019-03-25T00:46:17.163Z,5.50
2019-03-25T00:48:43.205Z,5.50
2019-03-25T00:51:09.259Z,5.40
2019-03-25T00:53:35.359Z,5.40
2019-03-25T00:56:01.411Z,5.40
2019-03-25T00:58:27.480Z,5.40
2019-03-25T01:00:53.531Z,5.40
2019-03-25T01:03:19.588Z,5.40
2019-03-25T01:05:45.678Z,5.30
2019-03-25T01:08:11.823Z,5.40
2019-03-25T01:10:37.877Z,5.30
2019-03-25T01:13:03.951Z,5.30
2019-03-25T01:15:30.043Z,5.30
2019-03-25T01:17:56.512Z,5.30
2019-03-25T01:20:22.594Z,5.20
2019-03-25T01:22:48.719Z,6.00
2019-03-25T01:25:14.788Z,5.20
2019-03-25T01:27:40.854Z,5.20
2019-03-25T01:30:08.710Z,5.20
2019-03-25T01:32:34.883Z,5.20
2019-03-25T01:35:01.035Z,5.20
2019-03-25T01:37:27.107Z,5.20
2019-03-25T01:39:53.159Z,5.10
2019-03-25T01:42:19.215Z,5.20
2019-03-25T01:44:45.267Z,5.20
2019-03-25T01:47:11.356Z,5.20
2019-03-25T01:49:37.415Z,5.10
2019-03-25T01:52:03.503Z,5.10
2019-03-25T01:54:29.684Z,5.20
2019-03-25T01:56:55.875Z,5.10
2019-03-25T01:59:21.973Z,5.10
2019-03-25T02:01:48.140Z,5.10
2019-03-25T02:04:14.319Z,5.10
2019-03-25T02:06:40.492Z,5.10
2019-03-25T02:09:07.475Z,5.10
2019-03-25T02:11:33.662Z,5.10
2019-03-25T02:13:59.865Z,4.80
2019-03-25T02:16:26.042Z,5.10
2019-03-25T02:18:52.206Z,5.10
2019-03-25T02:21:18.467Z,5.10
2019-03-25T02:23:44.643Z,5.10
2019-03-25T02:26:10.827Z,5.10
2019-03-25T02:28:36.903Z,5.10
2019-03-25T02:31:02.996Z,5.10
2019-03-25T02:33:29.191Z,5.10
2019-03-25T02:35:55.387Z,5.10
2019-03-25T02:38:21.566Z,5.10
2019-03-25T02:40:47.775Z,5.10
2019-03-25T02:43:14.028Z,5.20
2019-03-25T02:45:40.338Z,5.20
2019-03-25T02:48:06.543Z,5.20
2019-03-25T02:50:32.712Z,5.20
2019-03-25T02:52:58.943Z,5.20
2019-03-25T02:55:40.213Z,5.20
2019-03-25T02:57:53.079Z,5.20
2019-03-25T03:00:25.923Z,5.20
2019-03-25T03:02:51.994Z,5.20
2019-03-25T03:05:18.213Z,5.20
2019-03-25T03:07:44.453Z,5.20
2019-03-25T03:10:10.854Z,5.20
2019-03-25T03:12:37.013Z,5.20
2019-03-25T03:15:05.198Z,5.20
2019-03-25T03:17:31.372Z,5.20
2019-03-25T03:19:57.636Z,5.20
2019-03-25T03:22:23.832Z,5.20
2019-03-25T03:24:50.064Z,5.10
2019-03-25T03:27:16.225Z,5.10
2019-03-25T03:29:42.405Z,5.10
2019-03-25T03:32:08.601Z,5.00
2019-03-25T03:34:34.793Z,5.00
2019-03-25T03:37:01.020Z,5.00
2019-03-25T03:39:27.212Z,5.00
2019-03-25T03:41:53.435Z,5.00
2019-03-25T03:44:19.653Z,5.00
2019-03-25T03:46:45.815Z,5.00
2019-03-25T03:49:11.935Z,4.90
2019-03-25T03:51:38.121Z,4.80
2019-03-25T03:54:04.317Z,4.70
2019-03-25T03:56:30.521Z,4.60
2019-03-25T03:58:57.269Z,4.50
2019-03-25T04:01:23.320Z,4.40
2019-03-25T04:03:49.375Z,4.30
2019-03-25T04:06:15.638Z,4.20
2019-03-25T04:08:41.801Z,4.20
2019-03-25T04:11:07.886Z,4.20
2019-03-25T04:13:33.935Z,4.10
2019-03-25T04:16:01.611Z,4.10
2019-03-25T04:18:28.084Z,4.00
2019-03-25T04:20:54.151Z,4.00
2019-03-25T04:23:20.312Z,4.00
2019-03-25T04:25:46.394Z,4.00
2019-03-25T04:28:12.579Z,4.10
2019-03-25T04:30:38.633Z,4.10
2019-03-25T04:33:04.737Z,4.10
2019-03-25T04:35:30.848Z,4.20
2019-03-25T04:37:56.996Z,4.20
2019-03-25T04:40:23.104Z,4.20
2019-03-25T04:42:49.238Z,4.20
2019-03-25T04:45:15.690Z,4.20
2019-03-25T04:47:41.756Z,4.20
2019-03-25T04:50:07.824Z,4.30
2019-03-25T04:52:33.924Z,4.30
2019-03-25T04:54:59.967Z,4.30
2019-03-25T04:57:26.015Z,4.30
2019-03-25T04:59:52.113Z,4.30
2019-03-25T05:02:18.160Z,4.30
2019-03-25T05:04:44.296Z,4.30
2019-03-25T05:07:10.339Z,4.30
2019-03-25T05:09:36.403Z,4.30
2019-03-25T05:12:02.551Z,4.20
2019-03-25T05:14:28.611Z,4.20
2019-03-25T05:16:54.711Z,4.10
2019-03-25T05:19:20.799Z,4.00
2019-03-25T05:21:46.859Z,4.00
2019-03-25T05:24:12.912Z,4.00
2019-03-25T05:26:50.249Z,4.00
2019-03-25T05:29:06.983Z,4.10
2019-03-25T05:31:33.056Z,4.10
2019-03-25T05:33:59.111Z,4.20
2019-03-25T05:36:25.166Z,4.20
2019-03-25T05:38:51.227Z,4.30
2019-03-25T05:41:17.303Z,4.30
2019-03-25T05:43:43.353Z,4.30
2019-03-25T05:46:09.403Z,4.40
2019-03-25T05:48:35.495Z,4.40
2019-03-25T05:51:01.552Z,4.40
2019-03-25T05:53:27.600Z,4.40
2019-03-25T05:55:53.762Z,4.40
2019-03-25T05:58:19.811Z,4.40
2019-03-25T06:00:45.911Z,4.50
2019-03-25T06:03:11.977Z,4.50
2019-03-25T06:05:38.023Z,4.50
2019-03-25T06:08:04.080Z,4.50
2019-03-25T06:10:30.136Z,4.60
2019-03-25T06:12:56.208Z,4.50
2019-03-25T06:15:22.271Z,4.60
2019-03-25T06:17:48.358Z,4.60
2019-03-25T06:20:14.911Z,6.10
2019-03-25T06:22:41.041Z,4.60
2019-03-25T06:25:07.210Z,4.60
2019-03-25T06:27:33.379Z,4.70
2019-03-25T06:29:59.444Z,4.70
2019-03-25T06:32:25.522Z,4.70
2019-03-25T06:34:51.616Z,4.70
2019-03-25T06:37:17.760Z,4.80
2019-03-25T06:39:43.829Z,4.80
2019-03-25T06:42:09.888Z,4.80
2019-03-25T06:44:36.057Z,4.80
2019-03-25T06:47:02.112Z,4.90
2019-03-25T06:49:28.175Z,5.00
2019-03-25T06:51:54.243Z,5.10
2019-03-25T06:54:20.340Z,5.20
2019-03-25T06:56:46.401Z,5.30
2019-03-25T06:59:12.555Z,5.30
2019-03-25T07:01:38.618Z,5.30
2019-03-25T07:04:04.679Z,5.40
2019-03-25T07:06:30.839Z,5.40
2019-03-25T07:08:56.904Z,5.40
2019-03-25T07:11:22.955Z,5.40
2019-03-25T07:13:49.529Z,5.50
2019-03-25T07:16:15.687Z,5.60
2019-03-25T07:18:41.903Z,5.80
2019-03-25T07:21:07.951Z,6.00
2019-03-25T07:23:34.115Z,6.20
2019-03-25T07:26:00.194Z,6.30
2019-03-25T07:28:26.276Z,6.50
2019-03-25T07:30:52.344Z,6.80
2019-03-25T07:33:18.400Z,7.00
2019-03-25T07:35:44.459Z,7.20
2019-03-25T07:38:10.546Z,7.20
2019-03-25T07:40:36.591Z,7.10
2019-03-25T07:43:03.541Z,6.90
2019-03-25T07:45:29.713Z,6.80
2019-03-25T07:47:55.775Z,6.60
2019-03-25T07:50:21.834Z,6.50
2019-03-25T07:52:47.923Z,6.40
2019-03-25T07:55:13.980Z,6.20
2019-03-25T07:57:48.329Z,6.00
2019-03-25T08:00:13.962Z,5.80
2019-03-25T08:02:40.514Z,5.60
2019-03-25T08:05:06.902Z,5.50
2019-03-25T08:07:33.071Z,5.50
2019-03-25T08:09:59.202Z,5.30
2019-03-25T08:12:25.427Z,5.30
2019-03-25T08:14:51.569Z,5.20
2019-03-25T08:19:44.213Z,5.10
2019-03-25T08:22:10.267Z,5.10
2019-03-25T08:27:02.753Z,5.10
2019-03-25T08:29:28.839Z,5.10
2019-03-25T08:31:54.939Z,5.20
2019-03-25T08:34:21.057Z,5.30
2019-03-25T08:39:13.643Z,5.40
2019-03-25T08:41:39.795Z,5.40
2019-03-25T08:44:05.892Z,5.30
2019-03-25T08:46:31.955Z,5.30
2019-03-25T08:48:58.015Z,5.30
2019-03-25T08:53:50.630Z,5.20
2019-03-25T08:56:16.751Z,5.20
2019-03-25T08:58:42.803Z,5.10
2019-03-25T09:01:08.857Z,5.10
2019-03-25T09:03:34.919Z,5.10
2019-03-25T09:08:27.411Z,5.30
2019-03-25T09:10:53.571Z,5.40
2019-03-25T09:15:46.064Z,5.60
2019-03-25T09:18:12.133Z,5.70
2019-03-25T09:23:04.648Z,5.80
2019-03-25T09:25:30.696Z,6.00
2019-03-25T09:33:08.587Z,6.50
2019-03-25T09:38:01.088Z,7.00
2019-03-25T09:40:27.167Z,7.10
2019-03-25T09:42:53.228Z,7.20
2019-03-25T09:45:19.298Z,7.30
2019-03-25T09:47:45.376Z,7.40
2019-03-25T09:50:13.344Z,7.30
2019-03-25T09:55:07.332Z,7.30
2019-03-25T09:57:33.396Z,7.40
2019-03-25T09:59:59.448Z,7.60
2019-03-25T10:02:25.516Z,7.80
2019-03-25T10:04:51.672Z,8.10
2019-03-25T10:07:21.747Z,8.40
2019-03-25T10:09:47.817Z,8.60
2019-03-25T10:14:40.307Z,9.00
2019-03-25T10:19:32.832Z,9.00
2019-03-25T10:21:58.989Z,8.90
2019-03-25T10:24:27.834Z,8.90
2019-03-25T10:26:53.063Z,8.90
2019-03-25T10:31:45.560Z,8.80
2019-03-25T10:34:11.611Z,8.70
2019-03-25T10:39:06.023Z,8.90
2019-03-25T10:41:32.079Z,9.10
2019-03-25T10:43:58.147Z,9.40
2019-03-25T10:48:50.657Z,9.70
2019-03-25T10:51:16.716Z,9.60
2019-03-25T10:53:42.883Z,9.50
2019-03-25T11:01:01.840Z,8.90
2019-03-25T11:10:47.360Z,10.20
2019-03-25T11:15:39.992Z,9.50
2019-03-25T11:18:06.143Z,9.10
2019-03-25T11:20:32.199Z,8.60
2019-03-25T11:22:58.347Z,8.30
2019-03-25T11:25:24.426Z,8.10
2019-03-25T11:27:54.427Z,7.60
2019-03-25T11:32:46.819Z,6.80
2019-03-25T11:35:13.072Z,6.60
2019-03-25T11:37:39.155Z,6.30
2019-03-25T11:47:25.372Z,5.80
2019-03-25T11:52:17.920Z,6.10
2019-03-25T11:54:43.858Z,5.90
2019-03-25T11:59:36.352Z,6.10
2019-03-25T12:02:02.284Z,6.20
2019-03-25T12:09:21.335Z,6.90
2019-03-25T12:11:47.386Z,7.10
2019-03-25T12:14:13.376Z,7.30
2019-03-25T12:16:39.487Z,7.40
2019-03-25T12:19:05.550Z,7.60
2019-03-25T12:21:31.699Z,7.70
2019-03-25T12:23:57.819Z,7.60
2019-03-25T12:26:23.874Z,8.00
2019-03-25T12:31:16.382Z,8.30
2019-03-25T12:38:35.715Z,8.70
2019-03-25T12:41:01.816Z,8.60
2019-03-25T12:50:47.188Z,7.90
2019-03-25T12:53:13.239Z,7.60
2019-03-25T12:55:39.313Z,7.40
2019-03-25T13:00:39.019Z,7.40
2019-03-25T13:03:05.464Z,7.50
2019-03-25T13:07:57.988Z,8.20
2019-03-25T13:10:24.048Z,8.00
2019-03-25T13:12:50.101Z,8.40
2019-03-25T13:15:16.163Z,8.40
2019-03-25T13:17:42.195Z,8.80
2019-03-25T13:20:08.408Z,8.70
2019-03-25T13:25:01.111Z,8.50
2019-03-25T13:27:27.236Z,8.30
2019-03-25T13:29:53.287Z,8.20
2019-03-25T13:32:19.348Z,8.30
2019-03-25T13:34:45.849Z,8.40
2019-03-25T13:37:11.985Z,8.40
2019-03-25T13:39:38.136Z,8.60
2019-03-25T13:42:04.198Z,8.70
2019-03-25T13:44:30.252Z,8.90
2019-03-25T13:46:56.347Z,9.00
2019-03-25T13:51:48.907Z,9.30
2019-03-25T13:54:14.955Z,9.60
2019-03-25T13:56:41.009Z,9.40
2019-03-25T13:59:07.069Z,9.40
2019-03-25T14:01:33.123Z,9.50
2019-03-25T14:03:59.238Z,9.30
2019-03-25T14:06:25.298Z,9.30
2019-03-25T14:16:12.925Z,9.10
2019-03-25T14:21:05.391Z,9.20
2019-03-25T14:23:31.327Z,9.00
2019-03-25T14:25:57.388Z,9.00
2019-03-25T14:28:23.324Z,9.10
2019-03-25T14:35:42.013Z,9.40
2019-03-25T14:52:46.019Z,10.00
2019-03-25T15:00:06.136Z,9.10
2019-03-25T15:02:32.066Z,9.00
2019-03-25T15:12:17.051Z,8.60
2019-03-25T15:19:36.112Z,8.70
2019-03-25T15:22:02.188Z,8.60
2019-03-25T15:24:28.259Z,8.70
2019-03-25T15:26:54.334Z,8.70
2019-03-25T15:29:20.376Z,8.80
2019-03-25T15:31:46.679Z,9.10
2019-03-25T15:36:39.240Z,9.60
2019-03-25T15:39:06.599Z,9.90
2019-03-25T15:46:25.665Z,10.30
2019-03-25T15:48:51.723Z,10.30
2019-03-25T15:53:44.332Z,10.00
2019-03-25T15:56:10.479Z,10.00
2019-03-25T15:58:36.538Z,10.00
2019-03-25T16:01:02.805Z,9.90
2019-03-25T16:08:21.751Z,10.00
2019-03-25T16:15:41.840Z,10.10
2019-03-25T16:20:34.834Z,9.80
2019-03-25T16:23:00.923Z,9.80
2019-03-25T16:32:46.377Z,9.70
2019-03-25T16:40:06.152Z,9.40
2019-03-25T16:42:32.203Z,9.40
2019-03-25T16:44:58.255Z,9.30
2019-03-25T16:54:43.618Z,9.00
2019-03-25T16:59:36.572Z,8.80
2019-03-25T17:06:55.494Z,8.60
2019-03-25T17:09:21.559Z,8.50
2019-03-25T17:11:47.615Z,8.40
2019-03-25T17:16:40.131Z,8.40
2019-03-25T17:19:06.324Z,8.30
2019-03-25T17:21:32.447Z,8.30
2019-03-25T17:23:58.515Z,8.20
2019-03-25T17:26:24.703Z,8.20
2019-03-25T17:31:21.169Z,8.10
2019-03-25T17:33:45.223Z,8.00
2019-03-25T17:36:11.328Z,8.10
2019-03-25T17:41:04.117Z,8.00
2019-03-25T17:50:49.794Z,7.90
2019-03-25T17:55:42.302Z,7.70
2019-03-25T18:00:41.964Z,7.40
2019-03-25T18:03:11.257Z,7.30
2019-03-25T18:05:36.017Z,7.40
2019-03-25T18:08:02.063Z,7.30
2019-03-25T18:10:28.126Z,7.30
2019-03-25T18:12:54.230Z,7.20
2019-03-25T18:15:20.372Z,7.20
2019-03-25T18:17:46.419Z,7.10
2019-03-25T18:22:40.916Z,7.00
2019-03-25T18:25:07.453Z,6.90
2019-03-25T18:27:33.575Z,6.80
2019-03-25T18:29:59.660Z,6.70
2019-03-25T18:32:25.892Z,6.60
2019-03-25T18:34:51.952Z,6.60
2019-03-25T18:49:30.231Z,6.20
2019-03-25T18:51:56.420Z,6.10
2019-03-25T18:54:22.475Z,6.00
2019-03-25T18:56:48.540Z,6.00
2019-03-25T18:59:14.623Z,5.90
2019-03-25T19:11:31.449Z,5.60
2019-03-25T19:13:55.600Z,5.50
2019-03-25T19:18:48.303Z,5.30
2019-03-25T19:23:40.919Z,5.00
2019-03-25T19:26:07.081Z,5.00
2019-03-25T19:30:59.760Z,4.80
2019-03-25T19:43:11.871Z,4.50
2019-03-25T19:48:04.508Z,4.40
2019-03-25T19:52:57.076Z,4.20
2019-03-25T19:55:23.298Z,4.00
2019-03-25T19:57:49.384Z,4.00
2019-03-25T20:19:50.338Z,3.60
2019-03-25T20:22:16.448Z,3.50
2019-03-25T20:24:42.564Z,3.40
2019-03-25T20:27:08.703Z,3.30
2019-03-25T20:29:34.868Z,3.30
2019-03-25T20:32:01.067Z,3.20
2019-03-25T20:34:27.220Z,3.20
2019-03-25T20:36:53.269Z,3.20
2019-03-25T20:39:19.401Z,3.10
2019-03-25T20:41:45.539Z,3.10
2019-03-25T20:44:11.600Z,3.10
2019-03-25T20:46:37.666Z,3.00
2019-03-25T20:49:03.857Z,3.00
2019-03-25T20:51:30.004Z,3.00
2019-03-25T20:53:56.127Z,2.90
2019-03-25T20:56:22.324Z,2.90
2019-03-25T20:58:48.549Z,2.10
2019-03-25T21:01:14.727Z,2.90
2019-03-25T21:03:40.899Z,2.90
2019-03-25T21:06:07.500Z,2.90
2019-03-25T21:08:33.655Z,2.80
2019-03-25T21:10:59.727Z,2.80
2019-03-25T21:13:25.899Z,2.80
2019-03-25T21:15:52.067Z,2.80
2019-03-25T21:18:18.195Z,2.90
2019-03-25T21:20:44.300Z,2.90
2019-03-25T21:23:10.392Z,2.90
2019-03-25T21:25:36.490Z,3.00
2019-03-25T21:28:02.768Z,3.10
2019-03-25T21:30:29.009Z,3.10
2019-03-25T21:32:58.648Z,3.20
2019-03-25T21:35:23.192Z,3.20
2019-03-25T21:37:49.432Z,3.20
2019-03-25T21:40:15.623Z,3.20
2019-03-25T21:42:41.765Z,3.20
2019-03-25T21:45:08.539Z,3.20
2019-03-25T21:47:34.733Z,3.10
2019-03-25T21:50:00.867Z,3.10
2019-03-25T21:52:27.013Z,3.20
2019-03-25T21:54:53.454Z,3.20
2019-03-25T21:57:19.616Z,1.50
2019-03-25T21:59:45.810Z,3.20
2019-03-25T22:02:11.955Z,3.20
2019-03-25T22:04:38.007Z,3.20
2019-03-25T22:09:30.533Z,3.30
2019-03-25T22:11:56.587Z,3.30
2019-03-25T22:14:22.662Z,3.40
2019-03-25T22:16:48.719Z,3.40
2019-03-25T22:19:14.784Z,3.40
2019-03-25T22:21:40.846Z,3.40
2019-03-25T22:24:06.899Z,3.40
2019-03-25T22:26:32.968Z,3.50
2019-03-25T22:28:59.103Z,3.50
2019-03-25T22:31:25.192Z,3.50
2019-03-25T22:33:51.253Z,3.50
2019-03-25T22:36:17.416Z,3.50
2019-03-25T22:38:43.588Z,3.50
2019-03-25T22:41:09.635Z,3.50
2019-03-25T22:43:35.711Z,3.50
2019-03-25T22:46:01.798Z,3.40
2019-03-25T22:48:27.965Z,3.40
2019-03-25T22:50:54.079Z,3.40
2019-03-25T22:53:20.150Z,3.40
2019-03-25T22:55:46.227Z,3.40
2019-03-25T22:58:12.266Z,3.30
2019-03-25T23:00:40.239Z,3.40
2019-03-25T23:03:06.405Z,3.40
2019-03-25T23:05:32.625Z,3.40
2019-03-25T23:07:58.677Z,3.40
2019-03-25T23:10:24.749Z,3.40
2019-03-25T23:12:50.791Z,3.30
2019-03-25T23:15:16.852Z,3.40
2019-03-25T23:17:43.328Z,3.30
2019-03-25T23:20:09.996Z,3.30
2019-03-25T23:22:36.082Z,3.40
2019-03-25T23:25:03.835Z,3.40
2019-03-25T23:27:29.922Z,3.40
2019-03-25T23:29:55.975Z,3.40
2019-03-25T23:32:22.029Z,3.40
2019-03-25T23:34:48.135Z,3.30
2019-03-25T23:37:14.192Z,3.30
2019-03-25T23:39:40.371Z,3.30
2019-03-25T23:42:06.451Z,3.40
2019-03-25T23:44:32.546Z,3.40
2019-03-25T23:49:25.151Z,3.60
2019-03-25T23:51:51.199Z,3.60
2019-03-25T23:56:44.131Z,3.80
2019-03-25T23:59:10.199Z,3.80
